sensor_id;sensor_type;location;lat;lon;timestamp;P1;durP1;ratioP1;P2;durP2;ratioP2
1811;SDS011;904;47.814;11.134;2022-12-10T00:01:23;31.50;;;20.55;;
1811;SDS011;904;47.814;11.134;2022-12-10T00:03:52;25.27;;;17.42;;
1811;SDS011;904;47.814;11.134;2022-12-10T00:06:22;33.30;;;21.20;;
1811;SDS011;904;47.814;11.134;2022-12-10T00:08:51;28.90;;;19.95;;
1811;SDS011;904;47.814;11.134;2022-12-10T00:11:20;25.63;;;18.23;;
1811;SDS011;904;47.814;11.134;2022-12-10T00:13:49;32.35;;;19.33;;
1811;SDS011;904;47.814;11.134;2022-12-10T00:16:17;28.02;;;18.85;;
1811;SDS011;904;47.814;11.134;2022-12-10T00:18:46;26.60;;;18.45;;
1811;SDS011;904;47.814;11.134;2022-12-10T00:21:15;30.38;;;18.20;;
1811;SDS011;904;47.814;11.134;2022-12-10T00:23:46;26.38;;;18.77;;
1811;SDS011;904;47.814;11.134;2022-12-10T00:26:15;30.27;;;19.38;;
1811;SDS011;904;47.814;11.134;2022-12-10T00:28:43;28.40;;;17.40;;
1811;SDS011;904;47.814;11.134;2022-12-10T00:31:13;29.65;;;18.00;;
1811;SDS011;904;47.814;11.134;2022-12-10T00:33:42;27.90;;;17.98;;
1811;SDS011;904;47.814;11.134;2022-12-10T00:36:11;28.77;;;19.48;;
1811;SDS011;904;47.814;11.134;2022-12-10T00:38:41;34.22;;;18.10;;
1811;SDS011;904;47.814;11.134;2022-12-10T00:41:10;23.55;;;16.95;;
1811;SDS011;904;47.814;11.134;2022-12-10T00:43:39;29.85;;;18.60;;
1811;SDS011;904;47.814;11.134;2022-12-10T00:46:07;23.48;;;15.57;;
1811;SDS011;904;47.814;11.134;2022-12-10T00:48:35;29.80;;;18.60;;
1811;SDS011;904;47.814;11.134;2022-12-10T00:51:03;28.02;;;18.05;;
1811;SDS011;904;47.814;11.134;2022-12-10T00:53:38;32.60;;;18.65;;
1811;SDS011;904;47.814;11.134;2022-12-10T00:56:10;31.70;;;18.20;;
1811;SDS011;904;47.814;11.134;2022-12-10T00:58:39;23.92;;;16.60;;
1811;SDS011;904;47.814;11.134;2022-12-10T01:01:07;30.13;;;19.35;;
1811;SDS011;904;47.814;11.134;2022-12-10T01:03:37;27.08;;;19.10;;
1811;SDS011;904;47.814;11.134;2022-12-10T01:06:08;28.55;;;18.15;;
1811;SDS011;904;47.814;11.134;2022-12-10T01:08:38;33.20;;;21.48;;
1811;SDS011;904;47.814;11.134;2022-12-10T01:11:06;31.15;;;17.33;;
1811;SDS011;904;47.814;11.134;2022-12-10T01:13:35;30.73;;;17.77;;
1811;SDS011;904;47.814;11.134;2022-12-10T01:16:07;23.27;;;16.92;;
1811;SDS011;904;47.814;11.134;2022-12-10T01:18:36;27.30;;;17.20;;
1811;SDS011;904;47.814;11.134;2022-12-10T01:21:04;27.85;;;17.63;;
1811;SDS011;904;47.814;11.134;2022-12-10T01:23:32;26.60;;;15.73;;
1811;SDS011;904;47.814;11.134;2022-12-10T01:28:29;30.05;;;19.42;;
1811;SDS011;904;47.814;11.134;2022-12-10T01:31:01;28.20;;;17.95;;
1811;SDS011;904;47.814;11.134;2022-12-10T01:33:29;23.40;;;15.30;;
1811;SDS011;904;47.814;11.134;2022-12-10T01:35:57;31.50;;;18.85;;
1811;SDS011;904;47.814;11.134;2022-12-10T01:38:28;30.30;;;16.90;;
1811;SDS011;904;47.814;11.134;2022-12-10T01:40:56;26.25;;;17.42;;
1811;SDS011;904;47.814;11.134;2022-12-10T01:43:23;29.98;;;17.80;;
1811;SDS011;904;47.814;11.134;2022-12-10T01:45:51;27.48;;;16.58;;
1811;SDS011;904;47.814;11.134;2022-12-10T01:48:20;28.52;;;18.08;;
1811;SDS011;904;47.814;11.134;2022-12-10T01:50:47;34.75;;;19.05;;
1811;SDS011;904;47.814;11.134;2022-12-10T01:53:15;25.27;;;16.08;;
1811;SDS011;904;47.814;11.134;2022-12-10T01:55:46;25.90;;;15.98;;
1811;SDS011;904;47.814;11.134;2022-12-10T01:58:15;28.10;;;17.80;;
1811;SDS011;904;47.814;11.134;2022-12-10T02:00:49;29.15;;;17.40;;
1811;SDS011;904;47.814;11.134;2022-12-10T02:03:27;33.40;;;18.70;;
1811;SDS011;904;47.814;11.134;2022-12-10T02:06:05;34.30;;;20.55;;
1811;SDS011;904;47.814;11.134;2022-12-10T02:08:44;26.33;;;16.65;;
1811;SDS011;904;47.814;11.134;2022-12-10T02:11:22;30.38;;;18.88;;
1811;SDS011;904;47.814;11.134;2022-12-10T02:13:56;34.45;;;20.73;;
1811;SDS011;904;47.814;11.134;2022-12-10T02:16:29;31.25;;;16.95;;
1811;SDS011;904;47.814;11.134;2022-12-10T02:19:03;27.33;;;16.90;;
1811;SDS011;904;47.814;11.134;2022-12-10T02:21:41;29.58;;;16.85;;
1811;SDS011;904;47.814;11.134;2022-12-10T02:24:13;32.20;;;19.42;;
1811;SDS011;904;47.814;11.134;2022-12-10T02:26:45;30.65;;;18.27;;
1811;SDS011;904;47.814;11.134;2022-12-10T02:29:18;28.17;;;17.77;;
1811;SDS011;904;47.814;11.134;2022-12-10T02:31:47;27.40;;;18.15;;
1811;SDS011;904;47.814;11.134;2022-12-10T02:34:18;24.63;;;15.73;;
1811;SDS011;904;47.814;11.134;2022-12-10T02:36:48;29.05;;;17.90;;
1811;SDS011;904;47.814;11.134;2022-12-10T02:39:20;25.23;;;16.73;;
1811;SDS011;904;47.814;11.134;2022-12-10T02:41:53;28.90;;;16.88;;
1811;SDS011;904;47.814;11.134;2022-12-10T02:44:23;34.60;;;19.17;;
1811;SDS011;904;47.814;11.134;2022-12-10T02:46:54;28.58;;;16.50;;
1811;SDS011;904;47.814;11.134;2022-12-10T02:49:23;30.83;;;18.77;;
1811;SDS011;904;47.814;11.134;2022-12-10T02:51:51;26.83;;;17.08;;
1811;SDS011;904;47.814;11.134;2022-12-10T02:54:33;28.77;;;17.52;;
1811;SDS011;904;47.814;11.134;2022-12-10T02:57:06;27.33;;;18.08;;
1811;SDS011;904;47.814;11.134;2022-12-10T02:59:45;26.00;;;17.42;;
1811;SDS011;904;47.814;11.134;2022-12-10T03:02:24;30.50;;;16.60;;
1811;SDS011;904;47.814;11.134;2022-12-10T03:05:01;25.05;;;16.25;;
1811;SDS011;904;47.814;11.134;2022-12-10T03:07:33;22.45;;;15.18;;
1811;SDS011;904;47.814;11.134;2022-12-10T03:10:06;24.73;;;18.25;;
1811;SDS011;904;47.814;11.134;2022-12-10T03:12:41;27.80;;;17.42;;
1811;SDS011;904;47.814;11.134;2022-12-10T03:15:13;32.83;;;17.38;;
1811;SDS011;904;47.814;11.134;2022-12-10T03:17:42;25.02;;;16.15;;
1811;SDS011;904;47.814;11.134;2022-12-10T03:20:12;30.27;;;17.83;;
1811;SDS011;904;47.814;11.134;2022-12-10T03:22:42;26.45;;;16.02;;
1811;SDS011;904;47.814;11.134;2022-12-10T03:25:13;25.25;;;18.35;;
1811;SDS011;904;47.814;11.134;2022-12-10T03:27:43;28.13;;;17.38;;
1811;SDS011;904;47.814;11.134;2022-12-10T03:30:16;27.73;;;16.52;;
1811;SDS011;904;47.814;11.134;2022-12-10T03:32:44;30.65;;;18.27;;
1811;SDS011;904;47.814;11.134;2022-12-10T03:35:12;28.95;;;15.73;;
1811;SDS011;904;47.814;11.134;2022-12-10T03:37:40;30.45;;;19.00;;
1811;SDS011;904;47.814;11.134;2022-12-10T03:40:08;33.97;;;20.02;;
1811;SDS011;904;47.814;11.134;2022-12-10T03:42:38;35.13;;;20.10;;
1811;SDS011;904;47.814;11.134;2022-12-10T03:45:06;29.40;;;20.35;;
1811;SDS011;904;47.814;11.134;2022-12-10T03:47:35;30.23;;;17.27;;
1811;SDS011;904;47.814;11.134;2022-12-10T03:50:02;28.73;;;17.38;;
1811;SDS011;904;47.814;11.134;2022-12-10T03:52:30;32.40;;;17.17;;
1811;SDS011;904;47.814;11.134;2022-12-10T03:54:57;27.30;;;18.10;;
1811;SDS011;904;47.814;11.134;2022-12-10T03:57:24;27.85;;;17.85;;
1811;SDS011;904;47.814;11.134;2022-12-10T03:59:52;29.25;;;16.77;;
1811;SDS011;904;47.814;11.134;2022-12-10T04:02:19;28.75;;;16.95;;
1811;SDS011;904;47.814;11.134;2022-12-10T04:04:48;28.27;;;17.67;;
1811;SDS011;904;47.814;11.134;2022-12-10T04:07:15;24.58;;;15.57;;
1811;SDS011;904;47.814;11.134;2022-12-10T04:09:42;29.92;;;17.65;;
1811;SDS011;904;47.814;11.134;2022-12-10T04:12:09;27.83;;;17.15;;
1811;SDS011;904;47.814;11.134;2022-12-10T04:14:37;26.27;;;17.15;;
1811;SDS011;904;47.814;11.134;2022-12-10T04:17:21;25.77;;;16.35;;
1811;SDS011;904;47.814;11.134;2022-12-10T04:19:50;26.35;;;17.48;;
1811;SDS011;904;47.814;11.134;2022-12-10T04:22:17;22.08;;;15.98;;
1811;SDS011;904;47.814;11.134;2022-12-10T04:25:02;26.90;;;16.92;;
1811;SDS011;904;47.814;11.134;2022-12-10T04:27:47;27.25;;;17.45;;
1811;SDS011;904;47.814;11.134;2022-12-10T04:30:16;28.05;;;16.48;;
1811;SDS011;904;47.814;11.134;2022-12-10T04:32:43;25.58;;;16.30;;
1811;SDS011;904;47.814;11.134;2022-12-10T04:35:12;25.58;;;16.80;;
1811;SDS011;904;47.814;11.134;2022-12-10T04:37:40;27.05;;;17.35;;
1811;SDS011;904;47.814;11.134;2022-12-10T04:40:07;25.88;;;16.38;;
1811;SDS011;904;47.814;11.134;2022-12-10T04:42:36;25.92;;;16.42;;
1811;SDS011;904;47.814;11.134;2022-12-10T04:45:04;22.35;;;15.60;;
1811;SDS011;904;47.814;11.134;2022-12-10T04:47:32;25.52;;;17.13;;
1811;SDS011;904;47.814;11.134;2022-12-10T04:49:59;26.58;;;16.30;;
1811;SDS011;904;47.814;11.134;2022-12-10T04:52:28;26.58;;;16.25;;
1811;SDS011;904;47.814;11.134;2022-12-10T04:54:55;27.38;;;17.63;;
1811;SDS011;904;47.814;11.134;2022-12-10T04:57:22;27.10;;;17.88;;
1811;SDS011;904;47.814;11.134;2022-12-10T04:59:49;27.10;;;15.98;;
1811;SDS011;904;47.814;11.134;2022-12-10T05:02:16;24.73;;;16.35;;
1811;SDS011;904;47.814;11.134;2022-12-10T05:04:44;25.13;;;16.42;;
1811;SDS011;904;47.814;11.134;2022-12-10T05:07:11;26.88;;;15.48;;
1811;SDS011;904;47.814;11.134;2022-12-10T05:09:40;27.05;;;16.33;;
1811;SDS011;904;47.814;11.134;2022-12-10T05:12:07;25.23;;;15.68;;
1811;SDS011;904;47.814;11.134;2022-12-10T05:14:34;28.17;;;17.27;;
1811;SDS011;904;47.814;11.134;2022-12-10T05:17:01;23.75;;;17.05;;
1811;SDS011;904;47.814;11.134;2022-12-10T05:19:29;28.33;;;17.27;;
1811;SDS011;904;47.814;11.134;2022-12-10T05:21:56;25.15;;;16.50;;
1811;SDS011;904;47.814;11.134;2022-12-10T05:24:42;25.67;;;15.63;;
1811;SDS011;904;47.814;11.134;2022-12-10T05:27:09;25.50;;;18.05;;
1811;SDS011;904;47.814;11.134;2022-12-10T05:29:36;28.67;;;18.65;;
1811;SDS011;904;47.814;11.134;2022-12-10T05:32:04;26.08;;;17.80;;
1811;SDS011;904;47.814;11.134;2022-12-10T05:34:34;30.55;;;17.35;;
1811;SDS011;904;47.814;11.134;2022-12-10T05:37:01;28.05;;;17.63;;
1811;SDS011;904;47.814;11.134;2022-12-10T05:39:29;30.17;;;18.73;;
1811;SDS011;904;47.814;11.134;2022-12-10T05:41:57;26.77;;;17.50;;
1811;SDS011;904;47.814;11.134;2022-12-10T05:44:24;30.38;;;17.33;;
1811;SDS011;904;47.814;11.134;2022-12-10T05:46:51;30.15;;;18.20;;
1811;SDS011;904;47.814;11.134;2022-12-10T05:49:19;24.67;;;15.60;;
1811;SDS011;904;47.814;11.134;2022-12-10T05:51:46;28.33;;;17.42;;
1811;SDS011;904;47.814;11.134;2022-12-10T05:54:13;27.48;;;18.42;;
1811;SDS011;904;47.814;11.134;2022-12-10T05:56:40;22.27;;;15.88;;
1811;SDS011;904;47.814;11.134;2022-12-10T05:59:10;28.25;;;17.02;;
1811;SDS011;904;47.814;11.134;2022-12-10T06:01:37;24.95;;;16.45;;
1811;SDS011;904;47.814;11.134;2022-12-10T06:04:04;23.70;;;15.90;;
1811;SDS011;904;47.814;11.134;2022-12-10T06:06:33;29.48;;;15.65;;
1811;SDS011;904;47.814;11.134;2022-12-10T06:09:01;25.77;;;16.67;;
1811;SDS011;904;47.814;11.134;2022-12-10T06:11:29;25.63;;;15.45;;
1811;SDS011;904;47.814;11.134;2022-12-10T06:13:56;25.45;;;15.57;;
1811;SDS011;904;47.814;11.134;2022-12-10T06:16:26;23.58;;;16.48;;
1811;SDS011;904;47.814;11.134;2022-12-10T06:18:53;26.63;;;17.20;;
1811;SDS011;904;47.814;11.134;2022-12-10T06:21:21;23.67;;;16.02;;
1811;SDS011;904;47.814;11.134;2022-12-10T06:23:49;29.65;;;15.05;;
1811;SDS011;904;47.814;11.134;2022-12-10T06:26:19;27.20;;;14.93;;
1811;SDS011;904;47.814;11.134;2022-12-10T06:28:47;26.77;;;16.10;;
1811;SDS011;904;47.814;11.134;2022-12-10T06:31:15;26.98;;;16.70;;
1811;SDS011;904;47.814;11.134;2022-12-10T06:33:44;25.52;;;17.42;;
1811;SDS011;904;47.814;11.134;2022-12-10T06:36:12;28.33;;;18.35;;
1811;SDS011;904;47.814;11.134;2022-12-10T06:38:41;29.73;;;16.35;;
1811;SDS011;904;47.814;11.134;2022-12-10T06:41:09;26.90;;;16.00;;
1811;SDS011;904;47.814;11.134;2022-12-10T06:43:40;29.05;;;18.13;;
1811;SDS011;904;47.814;11.134;2022-12-10T06:46:08;26.95;;;16.65;;
1811;SDS011;904;47.814;11.134;2022-12-10T06:48:36;28.45;;;16.85;;
1811;SDS011;904;47.814;11.134;2022-12-10T06:51:06;34.33;;;19.83;;
1811;SDS011;904;47.814;11.134;2022-12-10T06:53:34;29.40;;;17.55;;
1811;SDS011;904;47.814;11.134;2022-12-10T06:56:02;30.85;;;18.45;;
1811;SDS011;904;47.814;11.134;2022-12-10T06:58:31;30.50;;;21.05;;
1811;SDS011;904;47.814;11.134;2022-12-10T07:01:01;27.95;;;18.60;;
1811;SDS011;904;47.814;11.134;2022-12-10T07:03:29;37.47;;;20.23;;
1811;SDS011;904;47.814;11.134;2022-12-10T07:05:57;32.00;;;21.75;;
1811;SDS011;904;47.814;11.134;2022-12-10T07:08:26;32.28;;;19.60;;
1811;SDS011;904;47.814;11.134;2022-12-10T07:10:53;31.23;;;21.52;;
1811;SDS011;904;47.814;11.134;2022-12-10T07:13:23;32.90;;;20.10;;
1811;SDS011;904;47.814;11.134;2022-12-10T07:15:50;31.02;;;19.55;;
1811;SDS011;904;47.814;11.134;2022-12-10T07:18:17;36.10;;;22.38;;
1811;SDS011;904;47.814;11.134;2022-12-10T07:20:44;34.83;;;21.13;;
1811;SDS011;904;47.814;11.134;2022-12-10T07:23:12;34.55;;;19.70;;
1811;SDS011;904;47.814;11.134;2022-12-10T07:25:40;30.25;;;20.30;;
1811;SDS011;904;47.814;11.134;2022-12-10T07:28:07;31.77;;;18.10;;
1811;SDS011;904;47.814;11.134;2022-12-10T07:30:35;33.30;;;19.55;;
1811;SDS011;904;47.814;11.134;2022-12-10T07:33:02;30.98;;;18.80;;
1811;SDS011;904;47.814;11.134;2022-12-10T07:35:29;32.92;;;21.63;;
1811;SDS011;904;47.814;11.134;2022-12-10T07:37:57;32.13;;;19.27;;
1811;SDS011;904;47.814;11.134;2022-12-10T07:40:24;32.08;;;18.30;;
1811;SDS011;904;47.814;11.134;2022-12-10T07:42:53;30.15;;;17.15;;
1811;SDS011;904;47.814;11.134;2022-12-10T07:45:20;30.08;;;16.60;;
1811;SDS011;904;47.814;11.134;2022-12-10T07:47:48;28.00;;;17.60;;
1811;SDS011;904;47.814;11.134;2022-12-10T07:50:15;28.52;;;16.30;;
1811;SDS011;904;47.814;11.134;2022-12-10T07:52:42;23.13;;;15.20;;
1811;SDS011;904;47.814;11.134;2022-12-10T07:55:09;22.73;;;15.02;;
1811;SDS011;904;47.814;11.134;2022-12-10T07:57:42;22.63;;;14.75;;
1811;SDS011;904;47.814;11.134;2022-12-10T08:00:12;27.92;;;16.42;;
1811;SDS011;904;47.814;11.134;2022-12-10T08:02:40;27.77;;;17.83;;
1811;SDS011;904;47.814;11.134;2022-12-10T08:05:07;29.73;;;15.70;;
1811;SDS011;904;47.814;11.134;2022-12-10T08:07:35;23.95;;;16.42;;
1811;SDS011;904;47.814;11.134;2022-12-10T08:10:04;25.63;;;16.15;;
1811;SDS011;904;47.814;11.134;2022-12-10T08:12:32;25.65;;;14.57;;
1811;SDS011;904;47.814;11.134;2022-12-10T08:14:59;24.13;;;15.70;;
1811;SDS011;904;47.814;11.134;2022-12-10T08:17:29;22.40;;;15.05;;
1811;SDS011;904;47.814;11.134;2022-12-10T08:19:56;21.30;;;14.07;;
1811;SDS011;904;47.814;11.134;2022-12-10T08:22:23;24.52;;;15.60;;
1811;SDS011;904;47.814;11.134;2022-12-10T08:24:51;23.52;;;15.35;;
1811;SDS011;904;47.814;11.134;2022-12-10T08:27:23;23.10;;;15.52;;
1811;SDS011;904;47.814;11.134;2022-12-10T08:29:51;17.42;;;13.55;;
1811;SDS011;904;47.814;11.134;2022-12-10T08:32:18;22.27;;;15.00;;
1811;SDS011;904;47.814;11.134;2022-12-10T08:34:47;21.27;;;13.90;;
1811;SDS011;904;47.814;11.134;2022-12-10T08:37:19;19.17;;;13.68;;
1811;SDS011;904;47.814;11.134;2022-12-10T08:39:55;20.85;;;13.93;;
1811;SDS011;904;47.814;11.134;2022-12-10T08:42:27;22.00;;;14.77;;
1811;SDS011;904;47.814;11.134;2022-12-10T08:44:54;21.40;;;13.13;;
1811;SDS011;904;47.814;11.134;2022-12-10T08:47:21;22.13;;;15.48;;
1811;SDS011;904;47.814;11.134;2022-12-10T08:49:51;23.05;;;16.40;;
1811;SDS011;904;47.814;11.134;2022-12-10T08:52:19;24.60;;;15.55;;
1811;SDS011;904;47.814;11.134;2022-12-10T08:54:46;22.30;;;14.25;;
1811;SDS011;904;47.814;11.134;2022-12-10T08:57:13;24.35;;;15.52;;
1811;SDS011;904;47.814;11.134;2022-12-10T08:59:42;23.50;;;14.80;;
1811;SDS011;904;47.814;11.134;2022-12-10T09:02:10;26.70;;;16.20;;
1811;SDS011;904;47.814;11.134;2022-12-10T09:04:39;21.38;;;15.65;;
1811;SDS011;904;47.814;11.134;2022-12-10T09:07:09;26.52;;;16.90;;
1811;SDS011;904;47.814;11.134;2022-12-10T09:09:36;25.95;;;16.67;;
1811;SDS011;904;47.814;11.134;2022-12-10T09:12:05;25.23;;;17.63;;
1811;SDS011;904;47.814;11.134;2022-12-10T09:14:33;25.27;;;14.95;;
1811;SDS011;904;47.814;11.134;2022-12-10T09:17:04;27.65;;;16.52;;
1811;SDS011;904;47.814;11.134;2022-12-10T09:19:32;24.98;;;15.73;;
1811;SDS011;904;47.814;11.134;2022-12-10T09:21:59;24.33;;;15.70;;
1811;SDS011;904;47.814;11.134;2022-12-10T09:24:27;26.10;;;16.65;;
1811;SDS011;904;47.814;11.134;2022-12-10T09:26:54;24.30;;;15.75;;
1811;SDS011;904;47.814;11.134;2022-12-10T09:29:21;22.60;;;13.65;;
1811;SDS011;904;47.814;11.134;2022-12-10T09:31:49;21.20;;;14.65;;
1811;SDS011;904;47.814;11.134;2022-12-10T09:34:17;28.65;;;17.85;;
1811;SDS011;904;47.814;11.134;2022-12-10T09:36:47;21.55;;;14.15;;
1811;SDS011;904;47.814;11.134;2022-12-10T09:39:16;21.52;;;14.60;;
1811;SDS011;904;47.814;11.134;2022-12-10T09:44:49;24.48;;;16.23;;
1811;SDS011;904;47.814;11.134;2022-12-10T09:47:24;34.28;;;18.13;;
1811;SDS011;904;47.814;11.134;2022-12-10T09:50:09;32.70;;;15.85;;
1811;SDS011;904;47.814;11.134;2022-12-10T09:52:43;29.25;;;15.82;;
1811;SDS011;904;47.814;11.134;2022-12-10T09:55:14;33.58;;;18.08;;
1811;SDS011;904;47.814;11.134;2022-12-10T09:57:46;31.40;;;18.23;;
1811;SDS011;904;47.814;11.134;2022-12-10T10:00:19;30.95;;;19.95;;
1811;SDS011;904;47.814;11.134;2022-12-10T10:02:49;31.83;;;18.65;;
1811;SDS011;904;47.814;11.134;2022-12-10T10:05:19;31.50;;;19.92;;
1811;SDS011;904;47.814;11.134;2022-12-10T10:07:50;31.80;;;19.65;;
1811;SDS011;904;47.814;11.134;2022-12-10T10:10:21;27.77;;;18.38;;
1811;SDS011;904;47.814;11.134;2022-12-10T10:12:53;32.03;;;18.40;;
1811;SDS011;904;47.814;11.134;2022-12-10T10:15:26;33.90;;;20.52;;
1811;SDS011;904;47.814;11.134;2022-12-10T10:18:01;33.35;;;18.88;;
1811;SDS011;904;47.814;11.134;2022-12-10T10:20:32;36.10;;;19.63;;
1811;SDS011;904;47.814;11.134;2022-12-10T10:23:01;31.52;;;19.38;;
1811;SDS011;904;47.814;11.134;2022-12-10T10:25:29;37.67;;;21.45;;
1811;SDS011;904;47.814;11.134;2022-12-10T10:27:57;29.17;;;18.70;;
1811;SDS011;904;47.814;11.134;2022-12-10T10:30:25;30.67;;;18.50;;
1811;SDS011;904;47.814;11.134;2022-12-10T10:32:53;34.25;;;18.75;;
1811;SDS011;904;47.814;11.134;2022-12-10T10:35:23;29.38;;;19.05;;
1811;SDS011;904;47.814;11.134;2022-12-10T10:37:56;34.42;;;19.13;;
1811;SDS011;904;47.814;11.134;2022-12-10T10:40:26;31.67;;;19.10;;
1811;SDS011;904;47.814;11.134;2022-12-10T10:42:58;31.02;;;17.75;;
1811;SDS011;904;47.814;11.134;2022-12-10T10:45:32;31.38;;;19.38;;
1811;SDS011;904;47.814;11.134;2022-12-10T10:48:06;34.53;;;18.50;;
1811;SDS011;904;47.814;11.134;2022-12-10T10:50:42;31.60;;;17.83;;
1811;SDS011;904;47.814;11.134;2022-12-10T10:53:21;30.55;;;19.33;;
1811;SDS011;904;47.814;11.134;2022-12-10T10:55:56;27.05;;;16.55;;
1811;SDS011;904;47.814;11.134;2022-12-10T10:58:35;27.88;;;17.88;;
1811;SDS011;904;47.814;11.134;2022-12-10T11:01:10;25.77;;;15.50;;
1811;SDS011;904;47.814;11.134;2022-12-10T11:03:44;27.55;;;16.42;;
1811;SDS011;904;47.814;11.134;2022-12-10T11:06:14;32.40;;;19.65;;
1811;SDS011;904;47.814;11.134;2022-12-10T11:08:43;31.85;;;21.10;;
1811;SDS011;904;47.814;11.134;2022-12-10T11:11:19;31.40;;;19.30;;
1811;SDS011;904;47.814;11.134;2022-12-10T11:13:51;35.10;;;19.80;;
1811;SDS011;904;47.814;11.134;2022-12-10T11:16:19;37.67;;;21.10;;
1811;SDS011;904;47.814;11.134;2022-12-10T11:18:52;40.45;;;22.65;;
1811;SDS011;904;47.814;11.134;2022-12-10T11:21:23;37.35;;;20.00;;
1811;SDS011;904;47.814;11.134;2022-12-10T11:23:51;31.52;;;18.70;;
1811;SDS011;904;47.814;11.134;2022-12-10T11:26:27;35.53;;;20.52;;
1811;SDS011;904;47.814;11.134;2022-12-10T11:29:18;38.83;;;23.05;;
1811;SDS011;904;47.814;11.134;2022-12-10T11:31:57;33.83;;;20.50;;
1811;SDS011;904;47.814;11.134;2022-12-10T11:34:38;33.85;;;17.63;;
1811;SDS011;904;47.814;11.134;2022-12-10T11:37:18;29.90;;;18.10;;
1811;SDS011;904;47.814;11.134;2022-12-10T11:42:47;29.42;;;18.13;;
1811;SDS011;904;47.814;11.134;2022-12-10T11:45:26;29.67;;;18.42;;
1811;SDS011;904;47.814;11.134;2022-12-10T11:48:01;30.75;;;17.52;;
1811;SDS011;904;47.814;11.134;2022-12-10T11:50:40;28.20;;;17.70;;
1811;SDS011;904;47.814;11.134;2022-12-10T11:53:23;27.02;;;16.25;;
1811;SDS011;904;47.814;11.134;2022-12-10T11:56:11;26.88;;;17.42;;
1811;SDS011;904;47.814;11.134;2022-12-10T11:58:57;26.92;;;18.67;;
1811;SDS011;904;47.814;11.134;2022-12-10T12:01:37;31.45;;;19.33;;
1811;SDS011;904;47.814;11.134;2022-12-10T12:04:20;30.27;;;18.40;;
1811;SDS011;904;47.814;11.134;2022-12-10T12:10:02;26.48;;;16.27;;
1811;SDS011;904;47.814;11.134;2022-12-10T12:12:47;24.38;;;16.02;;
1811;SDS011;904;47.814;11.134;2022-12-10T12:15:19;26.70;;;16.98;;
1811;SDS011;904;47.814;11.134;2022-12-10T12:17:56;31.00;;;19.08;;
1811;SDS011;904;47.814;11.134;2022-12-10T12:20:29;29.15;;;17.25;;
1811;SDS011;904;47.814;11.134;2022-12-10T12:23:03;26.95;;;18.58;;
1811;SDS011;904;47.814;11.134;2022-12-10T12:25:40;29.58;;;17.63;;
1811;SDS011;904;47.814;11.134;2022-12-10T12:28:14;24.25;;;16.15;;
1811;SDS011;904;47.814;11.134;2022-12-10T12:30:48;31.25;;;18.85;;
1811;SDS011;904;47.814;11.134;2022-12-10T12:33:26;32.10;;;17.42;;
1811;SDS011;904;47.814;11.134;2022-12-10T12:36:14;25.73;;;16.40;;
1811;SDS011;904;47.814;11.134;2022-12-10T12:38:45;25.55;;;17.25;;
1811;SDS011;904;47.814;11.134;2022-12-10T12:41:21;25.13;;;16.42;;
1811;SDS011;904;47.814;11.134;2022-12-10T12:43:58;22.27;;;15.52;;
1811;SDS011;904;47.814;11.134;2022-12-10T12:46:30;24.70;;;17.42;;
1811;SDS011;904;47.814;11.134;2022-12-10T12:49:06;27.60;;;16.75;;
1811;SDS011;904;47.814;11.134;2022-12-10T12:51:44;26.85;;;17.23;;
1811;SDS011;904;47.814;11.134;2022-12-10T12:54:16;27.45;;;17.38;;
1811;SDS011;904;47.814;11.134;2022-12-10T12:56:55;26.48;;;17.45;;
1811;SDS011;904;47.814;11.134;2022-12-10T12:59:34;27.45;;;17.92;;
1811;SDS011;904;47.814;11.134;2022-12-10T13:02:23;22.10;;;14.63;;
1811;SDS011;904;47.814;11.134;2022-12-10T13:05:04;29.42;;;16.75;;
1811;SDS011;904;47.814;11.134;2022-12-10T13:07:38;24.58;;;16.00;;
1811;SDS011;904;47.814;11.134;2022-12-10T13:12:52;23.70;;;16.23;;
1811;SDS011;904;47.814;11.134;2022-12-10T13:15:42;24.85;;;16.73;;
1811;SDS011;904;47.814;11.134;2022-12-10T13:18:33;30.80;;;16.23;;
1811;SDS011;904;47.814;11.134;2022-12-10T13:24:05;24.05;;;16.08;;
1811;SDS011;904;47.814;11.134;2022-12-10T13:26:34;22.73;;;15.65;;
1811;SDS011;904;47.814;11.134;2022-12-10T13:29:12;27.48;;;18.55;;
1811;SDS011;904;47.814;11.134;2022-12-10T13:31:54;26.08;;;17.50;;
1811;SDS011;904;47.814;11.134;2022-12-10T13:34:31;27.40;;;17.23;;
1811;SDS011;904;47.814;11.134;2022-12-10T13:37:05;27.65;;;15.77;;
1811;SDS011;904;47.814;11.134;2022-12-10T13:39:47;26.90;;;17.85;;
1811;SDS011;904;47.814;11.134;2022-12-10T13:42:30;28.30;;;17.30;;
1811;SDS011;904;47.814;11.134;2022-12-10T13:45:24;28.92;;;16.75;;
1811;SDS011;904;47.814;11.134;2022-12-10T13:47:54;25.63;;;16.13;;
1811;SDS011;904;47.814;11.134;2022-12-10T13:50:42;25.45;;;15.63;;
1811;SDS011;904;47.814;11.134;2022-12-10T13:53:17;26.00;;;14.45;;
1811;SDS011;904;47.814;11.134;2022-12-10T13:55:53;21.65;;;14.52;;
1811;SDS011;904;47.814;11.134;2022-12-10T13:58:33;27.25;;;15.30;;
1811;SDS011;904;47.814;11.134;2022-12-10T14:01:09;22.73;;;16.08;;
1811;SDS011;904;47.814;11.134;2022-12-10T14:06:32;27.67;;;16.08;;
1811;SDS011;904;47.814;11.134;2022-12-10T14:09:09;24.17;;;15.30;;
1811;SDS011;904;47.814;11.134;2022-12-10T14:11:42;23.27;;;14.05;;
1811;SDS011;904;47.814;11.134;2022-12-10T14:14:20;22.35;;;14.70;;
1811;SDS011;904;47.814;11.134;2022-12-10T14:16:51;24.23;;;15.10;;
1811;SDS011;904;47.814;11.134;2022-12-10T14:19:18;25.27;;;15.55;;
1811;SDS011;904;47.814;11.134;2022-12-10T14:21:46;20.63;;;13.90;;
1811;SDS011;904;47.814;11.134;2022-12-10T14:24:32;21.45;;;16.17;;
1811;SDS011;904;47.814;11.134;2022-12-10T14:27:03;24.98;;;16.27;;
1811;SDS011;904;47.814;11.134;2022-12-10T14:29:37;23.98;;;13.82;;
1811;SDS011;904;47.814;11.134;2022-12-10T14:32:10;21.95;;;14.00;;
1811;SDS011;904;47.814;11.134;2022-12-10T14:34:41;21.60;;;14.75;;
1811;SDS011;904;47.814;11.134;2022-12-10T14:37:09;24.10;;;15.85;;
1811;SDS011;904;47.814;11.134;2022-12-10T14:39:41;23.15;;;14.90;;
1811;SDS011;904;47.814;11.134;2022-12-10T14:42:09;24.77;;;15.43;;
1811;SDS011;904;47.814;11.134;2022-12-10T14:44:41;28.67;;;16.25;;
1811;SDS011;904;47.814;11.134;2022-12-10T14:47:12;20.90;;;15.50;;
1811;SDS011;904;47.814;11.134;2022-12-10T14:49:41;26.73;;;16.38;;
1811;SDS011;904;47.814;11.134;2022-12-10T14:52:11;24.35;;;15.48;;
1811;SDS011;904;47.814;11.134;2022-12-10T14:54:42;25.83;;;15.30;;
1811;SDS011;904;47.814;11.134;2022-12-10T14:57:13;21.92;;;15.40;;
1811;SDS011;904;47.814;11.134;2022-12-10T14:59:46;22.98;;;15.70;;
1811;SDS011;904;47.814;11.134;2022-12-10T15:02:17;24.88;;;15.98;;
1811;SDS011;904;47.814;11.134;2022-12-10T15:04:49;21.50;;;15.07;;
1811;SDS011;904;47.814;11.134;2022-12-10T15:07:18;22.90;;;13.90;;
1811;SDS011;904;47.814;11.134;2022-12-10T15:09:50;20.98;;;14.88;;
1811;SDS011;904;47.814;11.134;2022-12-10T15:12:23;17.77;;;13.32;;
1811;SDS011;904;47.814;11.134;2022-12-10T15:15:00;17.95;;;12.57;;
1811;SDS011;904;47.814;11.134;2022-12-10T15:17:34;21.38;;;13.95;;
1811;SDS011;904;47.814;11.134;2022-12-10T15:20:18;22.45;;;13.20;;
1811;SDS011;904;47.814;11.134;2022-12-10T15:22:49;20.40;;;13.32;;
1811;SDS011;904;47.814;11.134;2022-12-10T15:25:23;21.70;;;15.02;;
1811;SDS011;904;47.814;11.134;2022-12-10T15:27:56;17.50;;;12.25;;
1811;SDS011;904;47.814;11.134;2022-12-10T15:30:32;19.33;;;13.00;;
1811;SDS011;904;47.814;11.134;2022-12-10T15:33:02;15.90;;;11.60;;